sensor_id;sensor_type;location;lat;lon;timestamp;P1;durP1;ratioP1;P2;durP2;ratioP2
48534;SDS011;34323;52.022;5.686;2023-04-01T00:01:57;11.75;;;7.53;;
48534;SDS011;34323;52.022;5.686;2023-04-01T00:04:23;13.18;;;7.10;;
48534;SDS011;34323;52.022;5.686;2023-04-01T00:06:48;12.55;;;7.35;;
48534;SDS011;34323;52.022;5.686;2023-04-01T00:09:14;12.63;;;7.30;;
48534;SDS011;34323;52.022;5.686;2023-04-01T00:11:40;14.02;;;7.45;;
48534;SDS011;34323;52.022;5.686;2023-04-01T00:14:05;10.15;;;6.63;;
48534;SDS011;34323;52.022;5.686;2023-04-01T00:16:32;14.75;;;7.40;;
48534;SDS011;34323;52.022;5.686;2023-04-01T00:18:58;14.20;;;8.20;;
48534;SDS011;34323;52.022;5.686;2023-04-01T00:21:24;15.30;;;8.50;;
48534;SDS011;34323;52.022;5.686;2023-04-01T00:23:51;16.67;;;7.95;;
48534;SDS011;34323;52.022;5.686;2023-04-01T00:26:17;18.75;;;8.57;;
48534;SDS011;34323;52.022;5.686;2023-04-01T00:28:45;16.38;;;9.70;;
48534;SDS011;34323;52.022;5.686;2023-04-01T00:31:11;20.92;;;11.23;;
48534;SDS011;34323;52.022;5.686;2023-04-01T00:33:37;21.38;;;10.93;;
48534;SDS011;34323;52.022;5.686;2023-04-01T00:38:36;21.10;;;11.35;;
48534;SDS011;34323;52.022;5.686;2023-04-01T00:41:02;20.70;;;11.90;;
48534;SDS011;34323;52.022;5.686;2023-04-01T00:43:28;24.42;;;11.77;;
48534;SDS011;34323;52.022;5.686;2023-04-01T00:45:54;23.80;;;12.63;;
48534;SDS011;34323;52.022;5.686;2023-04-01T00:48:20;26.75;;;13.30;;
48534;SDS011;34323;52.022;5.686;2023-04-01T00:50:53;22.90;;;12.93;;
48534;SDS011;34323;52.022;5.686;2023-04-01T00:53:22;23.58;;;12.32;;
48534;SDS011;34323;52.022;5.686;2023-04-01T00:55:51;25.10;;;12.70;;
48534;SDS011;34323;52.022;5.686;2023-04-01T00:58:23;25.00;;;12.93;;
48534;SDS011;34323;52.022;5.686;2023-04-01T01:00:50;30.48;;;13.85;;
48534;SDS011;34323;52.022;5.686;2023-04-01T01:03:17;26.60;;;12.93;;
48534;SDS011;34323;52.022;5.686;2023-04-01T01:08:12;31.20;;;13.63;;
48534;SDS011;34323;52.022;5.686;2023-04-01T01:10:48;24.33;;;12.23;;
48534;SDS011;34323;52.022;5.686;2023-04-01T01:13:34;26.52;;;13.27;;
48534;SDS011;34323;52.022;5.686;2023-04-01T01:16:20;19.65;;;9.63;;
48534;SDS011;34323;52.022;5.686;2023-04-01T01:18:58;24.05;;;10.80;;
48534;SDS011;34323;52.022;5.686;2023-04-01T01:21:46;22.70;;;10.25;;
48534;SDS011;34323;52.022;5.686;2023-04-01T01:24:39;22.05;;;9.73;;
48534;SDS011;34323;52.022;5.686;2023-04-01T01:27:21;20.92;;;8.88;;
48534;SDS011;34323;52.022;5.686;2023-04-01T01:35:44;20.95;;;9.05;;
48534;SDS011;34323;52.022;5.686;2023-04-01T01:38:15;22.52;;;9.45;;
48534;SDS011;34323;52.022;5.686;2023-04-01T01:43:17;20.50;;;9.50;;
48534;SDS011;34323;52.022;5.686;2023-04-01T01:45:48;16.00;;;8.60;;
48534;SDS011;34323;52.022;5.686;2023-04-01T01:48:17;21.35;;;9.60;;
48534;SDS011;34323;52.022;5.686;2023-04-01T01:50:43;24.83;;;11.52;;
48534;SDS011;34323;52.022;5.686;2023-04-01T01:53:11;31.90;;;11.77;;
48534;SDS011;34323;52.022;5.686;2023-04-01T01:55:39;37.33;;;11.85;;
48534;SDS011;34323;52.022;5.686;2023-04-01T01:58:11;25.38;;;11.52;;
48534;SDS011;34323;52.022;5.686;2023-04-01T02:00:43;32.00;;;12.82;;
48534;SDS011;34323;52.022;5.686;2023-04-01T02:03:12;27.92;;;13.07;;
48534;SDS011;34323;52.022;5.686;2023-04-01T02:05:39;37.88;;;14.18;;
48534;SDS011;34323;52.022;5.686;2023-04-01T02:10:59;34.63;;;13.75;;
48534;SDS011;34323;52.022;5.686;2023-04-01T02:13:45;41.15;;;15.20;;
48534;SDS011;34323;52.022;5.686;2023-04-01T02:16:33;32.03;;;13.15;;
48534;SDS011;34323;52.022;5.686;2023-04-01T02:19:02;36.53;;;13.88;;
48534;SDS011;34323;52.022;5.686;2023-04-01T02:21:32;35.78;;;13.23;;
48534;SDS011;34323;52.022;5.686;2023-04-01T02:24:00;31.17;;;11.73;;
48534;SDS011;34323;52.022;5.686;2023-04-01T02:26:28;25.67;;;11.32;;
48534;SDS011;34323;52.022;5.686;2023-04-01T02:28:55;29.85;;;12.13;;
48534;SDS011;34323;52.022;5.686;2023-04-01T02:31:22;29.80;;;11.75;;
48534;SDS011;34323;52.022;5.686;2023-04-01T02:33:48;28.42;;;10.55;;
48534;SDS011;34323;52.022;5.686;2023-04-01T02:36:15;24.50;;;9.98;;
48534;SDS011;34323;52.022;5.686;2023-04-01T02:38:43;26.23;;;10.27;;
48534;SDS011;34323;52.022;5.686;2023-04-01T02:41:10;30.80;;;10.50;;
48534;SDS011;34323;52.022;5.686;2023-04-01T02:43:36;29.52;;;9.30;;
48534;SDS011;34323;52.022;5.686;2023-04-01T02:46:02;23.33;;;8.40;;
48534;SDS011;34323;52.022;5.686;2023-04-01T02:48:27;26.17;;;9.07;;
48534;SDS011;34323;52.022;5.686;2023-04-01T02:50:54;21.27;;;8.07;;
48534;SDS011;34323;52.022;5.686;2023-04-01T02:53:19;26.42;;;10.45;;
48534;SDS011;34323;52.022;5.686;2023-04-01T02:55:45;22.08;;;8.70;;
48534;SDS011;34323;52.022;5.686;2023-04-01T02:58:11;17.58;;;8.48;;
48534;SDS011;34323;52.022;5.686;2023-04-01T03:00:37;23.13;;;8.50;;
48534;SDS011;34323;52.022;5.686;2023-04-01T03:03:02;21.08;;;7.97;;
48534;SDS011;34323;52.022;5.686;2023-04-01T03:05:28;18.20;;;7.85;;
48534;SDS011;34323;52.022;5.686;2023-04-01T03:07:54;24.15;;;7.80;;
48534;SDS011;34323;52.022;5.686;2023-04-01T03:10:19;24.10;;;8.00;;
48534;SDS011;34323;52.022;5.686;2023-04-01T03:12:45;17.55;;;7.00;;
48534;SDS011;34323;52.022;5.686;2023-04-01T03:15:11;19.02;;;7.60;;
48534;SDS011;34323;52.022;5.686;2023-04-01T03:17:39;20.65;;;7.55;;
48534;SDS011;34323;52.022;5.686;2023-04-01T03:20:06;18.55;;;8.65;;
48534;SDS011;34323;52.022;5.686;2023-04-01T03:22:33;19.17;;;7.97;;
48534;SDS011;34323;52.022;5.686;2023-04-01T03:25:00;16.67;;;9.15;;
48534;SDS011;34323;52.022;5.686;2023-04-01T03:27:26;17.67;;;8.32;;
48534;SDS011;34323;52.022;5.686;2023-04-01T03:29:51;16.00;;;7.75;;
48534;SDS011;34323;52.022;5.686;2023-04-01T03:32:17;16.70;;;9.32;;
48534;SDS011;34323;52.022;5.686;2023-04-01T03:34:42;16.08;;;9.15;;
48534;SDS011;34323;52.022;5.686;2023-04-01T03:37:08;17.35;;;9.00;;
48534;SDS011;34323;52.022;5.686;2023-04-01T03:39:34;18.92;;;9.10;;
48534;SDS011;34323;52.022;5.686;2023-04-01T03:42:00;20.42;;;9.55;;
48534;SDS011;34323;52.022;5.686;2023-04-01T03:44:26;17.50;;;9.35;;
48534;SDS011;34323;52.022;5.686;2023-04-01T03:46:55;26.92;;;10.65;;
48534;SDS011;34323;52.022;5.686;2023-04-01T03:49:20;20.25;;;9.40;;
48534;SDS011;34323;52.022;5.686;2023-04-01T03:51:46;18.42;;;9.43;;
48534;SDS011;34323;52.022;5.686;2023-04-01T03:54:11;23.17;;;9.50;;
48534;SDS011;34323;52.022;5.686;2023-04-01T03:56:37;18.30;;;10.23;;
48534;SDS011;34323;52.022;5.686;2023-04-01T03:59:03;17.92;;;9.85;;
48534;SDS011;34323;52.022;5.686;2023-04-01T04:01:30;20.88;;;10.38;;
48534;SDS011;34323;52.022;5.686;2023-04-01T04:03:56;16.88;;;11.43;;
48534;SDS011;34323;52.022;5.686;2023-04-01T04:06:22;23.40;;;11.10;;
48534;SDS011;34323;52.022;5.686;2023-04-01T04:08:48;27.13;;;11.32;;
48534;SDS011;34323;52.022;5.686;2023-04-01T04:11:14;17.52;;;10.93;;
48534;SDS011;34323;52.022;5.686;2023-04-01T04:13:40;18.75;;;11.45;;
48534;SDS011;34323;52.022;5.686;2023-04-01T04:16:06;19.73;;;11.70;;
48534;SDS011;34323;52.022;5.686;2023-04-01T04:18:33;17.38;;;10.65;;
48534;SDS011;34323;52.022;5.686;2023-04-01T04:20:59;23.25;;;11.00;;
48534;SDS011;34323;52.022;5.686;2023-04-01T04:23:24;20.35;;;11.85;;
48534;SDS011;34323;52.022;5.686;2023-04-01T04:25:57;21.02;;;10.98;;
48534;SDS011;34323;52.022;5.686;2023-04-01T04:28:23;19.80;;;11.82;;
48534;SDS011;34323;52.022;5.686;2023-04-01T04:30:49;16.95;;;9.70;;
48534;SDS011;34323;52.022;5.686;2023-04-01T04:33:14;22.00;;;12.60;;
48534;SDS011;34323;52.022;5.686;2023-04-01T04:35:40;22.23;;;12.82;;
48534;SDS011;34323;52.022;5.686;2023-04-01T04:38:06;28.27;;;13.30;;
48534;SDS011;34323;52.022;5.686;2023-04-01T04:40:31;24.80;;;14.38;;
48534;SDS011;34323;52.022;5.686;2023-04-01T04:42:57;21.30;;;12.80;;
48534;SDS011;34323;52.022;5.686;2023-04-01T04:45:22;23.60;;;12.60;;
48534;SDS011;34323;52.022;5.686;2023-04-01T04:47:48;19.13;;;11.40;;
48534;SDS011;34323;52.022;5.686;2023-04-01T04:50:13;16.55;;;10.30;;
48534;SDS011;34323;52.022;5.686;2023-04-01T04:52:39;17.08;;;9.32;;
48534;SDS011;34323;52.022;5.686;2023-04-01T04:55:05;16.23;;;7.95;;
48534;SDS011;34323;52.022;5.686;2023-04-01T04:57:31;12.50;;;7.60;;
48534;SDS011;34323;52.022;5.686;2023-04-01T04:59:56;13.75;;;7.63;;
48534;SDS011;34323;52.022;5.686;2023-04-01T05:02:22;12.88;;;7.10;;
48534;SDS011;34323;52.022;5.686;2023-04-01T05:04:47;11.95;;;7.00;;
48534;SDS011;34323;52.022;5.686;2023-04-01T05:07:13;9.77;;;6.05;;
48534;SDS011;34323;52.022;5.686;2023-04-01T05:09:38;13.07;;;6.13;;
48534;SDS011;34323;52.022;5.686;2023-04-01T05:12:04;11.45;;;6.72;;
48534;SDS011;34323;52.022;5.686;2023-04-01T05:14:30;11.35;;;6.55;;
48534;SDS011;34323;52.022;5.686;2023-04-01T05:16:55;11.60;;;6.00;;
48534;SDS011;34323;52.022;5.686;2023-04-01T05:19:21;9.05;;;6.03;;
48534;SDS011;34323;52.022;5.686;2023-04-01T05:21:46;10.65;;;5.85;;
48534;SDS011;34323;52.022;5.686;2023-04-01T05:24:12;11.25;;;5.95;;
48534;SDS011;34323;52.022;5.686;2023-04-01T05:26:38;10.80;;;6.57;;
48534;SDS011;34323;52.022;5.686;2023-04-01T05:29:03;9.25;;;5.97;;
48534;SDS011;34323;52.022;5.686;2023-04-01T05:31:29;8.43;;;5.93;;
48534;SDS011;34323;52.022;5.686;2023-04-01T05:33:55;9.85;;;6.32;;
48534;SDS011;34323;52.022;5.686;2023-04-01T05:36:21;9.60;;;5.65;;
48534;SDS011;34323;52.022;5.686;2023-04-01T05:38:46;9.77;;;6.10;;
48534;SDS011;34323;52.022;5.686;2023-04-01T05:41:13;8.70;;;5.85;;
48534;SDS011;34323;52.022;5.686;2023-04-01T05:43:40;8.77;;;5.97;;
48534;SDS011;34323;52.022;5.686;2023-04-01T05:46:06;11.50;;;5.80;;
48534;SDS011;34323;52.022;5.686;2023-04-01T05:48:33;10.90;;;5.75;;
48534;SDS011;34323;52.022;5.686;2023-04-01T05:51:00;8.15;;;5.35;;
48534;SDS011;34323;52.022;5.686;2023-04-01T05:53:26;8.50;;;6.05;;
48534;SDS011;34323;52.022;5.686;2023-04-01T05:55:51;8.48;;;5.40;;
48534;SDS011;34323;52.022;5.686;2023-04-01T05:58:17;9.57;;;6.45;;
48534;SDS011;34323;52.022;5.686;2023-04-01T06:00:43;9.20;;;6.18;;
48534;SDS011;34323;52.022;5.686;2023-04-01T06:03:08;10.85;;;5.97;;
48534;SDS011;34323;52.022;5.686;2023-04-01T06:05:39;10.55;;;6.78;;
48534;SDS011;34323;52.022;5.686;2023-04-01T06:08:09;11.32;;;6.82;;
48534;SDS011;34323;52.022;5.686;2023-04-01T06:10:55;13.35;;;5.72;;
48534;SDS011;34323;52.022;5.686;2023-04-01T06:13:32;10.23;;;5.53;;
48534;SDS011;34323;52.022;5.686;2023-04-01T06:27:05;9.30;;;4.43;;
48534;SDS011;34323;52.022;5.686;2023-04-01T06:32:40;8.07;;;4.00;;
48534;SDS011;34323;52.022;5.686;2023-04-01T06:37:42;7.35;;;3.35;;
48534;SDS011;34323;52.022;5.686;2023-04-01T06:43:22;6.38;;;3.20;;
48534;SDS011;34323;52.022;5.686;2023-04-01T06:51:01;4.90;;;2.88;;
48534;SDS011;34323;52.022;5.686;2023-04-01T06:56:20;5.65;;;2.95;;
48534;SDS011;34323;52.022;5.686;2023-04-01T06:58:53;5.35;;;2.55;;
48534;SDS011;34323;52.022;5.686;2023-04-01T07:01:24;5.18;;;3.00;;
48534;SDS011;34323;52.022;5.686;2023-04-01T07:07:05;3.95;;;2.20;;
48534;SDS011;34323;52.022;5.686;2023-04-01T07:09:32;5.57;;;2.60;;
48534;SDS011;34323;52.022;5.686;2023-04-01T07:12:02;4.93;;;2.38;;
48534;SDS011;34323;52.022;5.686;2023-04-01T07:14:36;5.18;;;3.28;;
48534;SDS011;34323;52.022;5.686;2023-04-01T07:17:09;4.50;;;2.50;;
48534;SDS011;34323;52.022;5.686;2023-04-01T07:20:05;4.35;;;2.25;;
48534;SDS011;34323;52.022;5.686;2023-04-01T07:22:43;4.22;;;2.30;;
48534;SDS011;34323;52.022;5.686;2023-04-01T07:25:13;3.90;;;2.08;;
48534;SDS011;34323;52.022;5.686;2023-04-01T07:27:42;5.35;;;2.97;;
48534;SDS011;34323;52.022;5.686;2023-04-01T07:30:15;4.43;;;2.38;;
48534;SDS011;34323;52.022;5.686;2023-04-01T07:35:36;5.85;;;2.20;;
48534;SDS011;34323;52.022;5.686;2023-04-01T07:38:11;3.88;;;2.05;;
48534;SDS011;34323;52.022;5.686;2023-04-01T07:41:06;3.97;;;2.17;;
48534;SDS011;34323;52.022;5.686;2023-04-01T07:44:10;3.90;;;1.90;;
48534;SDS011;34323;52.022;5.686;2023-04-01T07:51:57;3.20;;;1.45;;
48534;SDS011;34323;52.022;5.686;2023-04-01T07:57:36;2.58;;;1.55;;
48534;SDS011;34323;52.022;5.686;2023-04-01T08:05:37;2.83;;;1.67;;
48534;SDS011;34323;52.022;5.686;2023-04-01T08:08:13;3.13;;;1.80;;
48534;SDS011;34323;52.022;5.686;2023-04-01T08:17:02;4.45;;;2.58;;
48534;SDS011;34323;52.022;5.686;2023-04-01T08:19:45;3.60;;;1.70;;
48534;SDS011;34323;52.022;5.686;2023-04-01T08:22:20;4.43;;;2.65;;
48534;SDS011;34323;52.022;5.686;2023-04-01T08:25:01;3.72;;;2.58;;
48534;SDS011;34323;52.022;5.686;2023-04-01T08:27:45;4.87;;;2.93;;
48534;SDS011;34323;52.022;5.686;2023-04-01T08:32:54;4.18;;;2.50;;
48534;SDS011;34323;52.022;5.686;2023-04-01T08:35:46;4.47;;;2.58;;
48534;SDS011;34323;52.022;5.686;2023-04-01T08:38:21;5.20;;;2.85;;
48534;SDS011;34323;52.022;5.686;2023-04-01T08:40:59;4.15;;;2.58;;
48534;SDS011;34323;52.022;5.686;2023-04-01T09:02:38;6.82;;;4.13;;
48534;SDS011;34323;52.022;5.686;2023-04-01T09:08:08;7.78;;;5.07;;
48534;SDS011;34323;52.022;5.686;2023-04-01T09:10:56;8.65;;;4.88;;
48534;SDS011;34323;52.022;5.686;2023-04-01T09:17:02;8.05;;;5.00;;
48534;SDS011;34323;52.022;5.686;2023-04-01T09:19:50;7.63;;;4.63;;
48534;SDS011;34323;52.022;5.686;2023-04-01T09:22:41;7.85;;;4.30;;
48534;SDS011;34323;52.022;5.686;2023-04-01T09:28:19;7.88;;;4.93;;
48534;SDS011;34323;52.022;5.686;2023-04-01T09:41:50;25.23;;;8.45;;
48534;SDS011;34323;52.022;5.686;2023-04-01T09:44:37;9.02;;;5.32;;
48534;SDS011;34323;52.022;5.686;2023-04-01T09:52:40;10.73;;;6.30;;
48534;SDS011;34323;52.022;5.686;2023-04-01T09:55:16;11.20;;;6.03;;
48534;SDS011;34323;52.022;5.686;2023-04-01T09:58:08;10.25;;;6.70;;
48534;SDS011;34323;52.022;5.686;2023-04-01T10:21:55;9.68;;;5.88;;
48534;SDS011;34323;52.022;5.686;2023-04-01T10:46:54;7.35;;;4.53;;
48534;SDS011;34323;52.022;5.686;2023-04-01T10:49:37;8.20;;;5.55;;
48534;SDS011;34323;52.022;5.686;2023-04-01T11:03:39;7.93;;;4.32;;
48534;SDS011;34323;52.022;5.686;2023-04-01T11:07:01;8.65;;;4.78;;
48534;SDS011;34323;52.022;5.686;2023-04-01T11:12:47;5.00;;;3.45;;
48534;SDS011;34323;52.022;5.686;2023-04-01T11:23:58;4.15;;;2.65;;
48534;SDS011;34323;52.022;5.686;2023-04-01T11:29:24;5.53;;;4.15;;
48534;SDS011;34323;52.022;5.686;2023-04-01T11:34:32;4.80;;;3.42;;
48534;SDS011;34323;52.022;5.686;2023-04-01T11:42:55;5.28;;;3.67;;
48534;SDS011;34323;52.022;5.686;2023-04-01T11:51:20;3.10;;;2.00;;
48534;SDS011;34323;52.022;5.686;2023-04-01T11:57:52;3.58;;;2.30;;
48534;SDS011;34323;52.022;5.686;2023-04-01T12:00:49;2.42;;;1.85;;
48534;SDS011;34323;52.022;5.686;2023-04-01T12:03:33;3.42;;;1.92;;
48534;SDS011;34323;52.022;5.686;2023-04-01T12:20:45;3.97;;;2.75;;
48534;SDS011;34323;52.022;5.686;2023-04-01T12:38:43;5.20;;;3.50;;
48534;SDS011;34323;52.022;5.686;2023-04-01T12:53:03;4.45;;;3.00;;
48534;SDS011;34323;52.022;5.686;2023-04-01T12:55:51;7.28;;;3.13;;
48534;SDS011;34323;52.022;5.686;2023-04-01T12:58:23;4.95;;;3.63;;
48534;SDS011;34323;52.022;5.686;2023-04-01T13:15:13;6.07;;;3.70;;
48534;SDS011;34323;52.022;5.686;2023-04-01T13:18:25;5.05;;;3.83;;
48534;SDS011;34323;52.022;5.686;2023-04-01T13:21:00;7.47;;;3.40;;
48534;SDS011;34323;52.022;5.686;2023-04-01T13:23:53;3.90;;;2.90;;
48534;SDS011;34323;52.022;5.686;2023-04-01T13:26:35;8.82;;;3.50;;
48534;SDS011;34323;52.022;5.686;2023-04-01T13:29:27;6.30;;;2.97;;
48534;SDS011;34323;52.022;5.686;2023-04-01T13:32:09;4.75;;;3.35;;
48534;SDS011;34323;52.022;5.686;2023-04-01T13:35:05;4.00;;;2.80;;
48534;SDS011;34323;52.022;5.686;2023-04-01T13:40:43;7.78;;;3.75;;
48534;SDS011;34323;52.022;5.686;2023-04-01T13:54:40;4.40;;;3.03;;
48534;SDS011;34323;52.022;5.686;2023-04-01T14:08:57;5.95;;;3.47;;
48534;SDS011;34323;52.022;5.686;2023-04-01T14:12:14;5.10;;;2.83;;
48534;SDS011;34323;52.022;5.686;2023-04-01T14:25:55;3.90;;;2.47;;
48534;SDS011;34323;52.022;5.686;2023-04-01T14:31:27;4.35;;;2.20;;
48534;SDS011;34323;52.022;5.686;2023-04-01T14:47:51;4.20;;;2.40;;
48534;SDS011;34323;52.022;5.686;2023-04-01T14:50:22;3.33;;;2.47;;
48534;SDS011;34323;52.022;5.686;2023-04-01T14:53:07;3.65;;;2.33;;
48534;SDS011;34323;52.022;5.686;2023-04-01T14:55:57;4.70;;;2.95;;
48534;SDS011;34323;52.022;5.686;2023-04-01T14:58:42;2.83;;;2.10;;
48534;SDS011;34323;52.022;5.686;2023-04-01T15:01:20;4.18;;;2.75;;
48534;SDS011;34323;52.022;5.686;2023-04-01T15:06:33;6.28;;;2.75;;
48534;SDS011;34323;52.022;5.686;2023-04-01T15:12:22;5.30;;;2.25;;
48534;SDS011;34323;52.022;5.686;2023-04-01T15:20:44;4.43;;;2.63;;
48534;SDS011;34323;52.022;5.686;2023-04-01T15:23:37;4.00;;;2.95;;
48534;SDS011;34323;52.022;5.686;2023-04-01T15:31:55;7.55;;;3.97;;
48534;SDS011;34323;52.022;5.686;2023-04-01T15:37:33;5.93;;;3.65;;
48534;SDS011;34323;52.022;5.686;2023-04-01T15:43:15;6.20;;;4.38;;
48534;SDS011;34323;52.022;5.686;2023-04-01T15:46:09;5.85;;;4.22;;
48534;SDS011;34323;52.022;5.686;2023-04-01T16:02:35;7.85;;;3.90;;
48534;SDS011;34323;52.022;5.686;2023-04-01T16:16:41;5.95;;;3.55;;
48534;SDS011;34323;52.022;5.686;2023-04-01T16:27:48;5.07;;;3.85;;
48534;SDS011;34323;52.022;5.686;2023-04-01T16:30:35;4.75;;;3.33;;
48534;SDS011;34323;52.022;5.686;2023-04-01T16:33:21;4.65;;;3.33;;
48534;SDS011;34323;52.022;5.686;2023-04-01T16:36:05;4.22;;;3.17;;
48534;SDS011;34323;52.022;5.686;2023-04-01T16:41:18;4.27;;;3.13;;
48534;SDS011;34323;52.022;5.686;2023-04-01T16:43:52;5.35;;;3.95;;
48534;SDS011;34323;52.022;5.686;2023-04-01T16:46:32;4.60;;;3.38;;
48534;SDS011;34323;52.022;5.686;2023-04-01T16:54:36;5.85;;;4.28;;
48534;SDS011;34323;52.022;5.686;2023-04-01T17:04:44;6.53;;;4.63;;
48534;SDS011;34323;52.022;5.686;2023-04-01T17:15:42;7.63;;;4.82;;
48534;SDS011;34323;52.022;5.686;2023-04-01T17:21:13;7.45;;;5.75;;
48534;SDS011;34323;52.022;5.686;2023-04-01T17:23:52;8.80;;;6.68;;
48534;SDS011;34323;52.022;5.686;2023-04-01T17:29:17;6.90;;;4.75;;
48534;SDS011;34323;52.022;5.686;2023-04-01T17:32:13;6.22;;;4.32;;
48534;SDS011;34323;52.022;5.686;2023-04-01T17:35:11;6.10;;;4.60;;
48534;SDS011;34323;52.022;5.686;2023-04-01T17:49:14;7.60;;;5.78;;
48534;SDS011;34323;52.022;5.686;2023-04-01T17:51:55;6.28;;;4.28;;
48534;SDS011;34323;52.022;5.686;2023-04-01T17:54:44;7.40;;;5.45;;
48534;SDS011;34323;52.022;5.686;2023-04-01T17:57:28;6.47;;;5.10;;
48534;SDS011;34323;52.022;5.686;2023-04-01T18:05:42;7.65;;;5.32;;
48534;SDS011;34323;52.022;5.686;2023-04-01T18:08:18;7.15;;;5.30;;
48534;SDS011;34323;52.022;5.686;2023-04-01T18:11:18;8.07;;;5.65;;
48534;SDS011;34323;52.022;5.686;2023-04-01T18:22:46;6.85;;;5.38;;
48534;SDS011;34323;52.022;5.686;2023-04-01T18:25:28;9.27;;;4.90;;
48534;SDS011;34323;52.022;5.686;2023-04-01T18:28:14;7.47;;;5.30;;
48534;SDS011;34323;52.022;5.686;2023-04-01T18:30:57;7.10;;;5.45;;
48534;SDS011;34323;52.022;5.686;2023-04-01T18:36:22;7.25;;;4.88;;
48534;SDS011;34323;52.022;5.686;2023-04-01T18:44:45;6.68;;;4.72;;
48534;SDS011;34323;52.022;5.686;2023-04-01T18:50:22;6.47;;;5.20;;
48534;SDS011;34323;52.022;5.686;2023-04-01T18:55:47;9.18;;;5.90;;
48534;SDS011;34323;52.022;5.686;2023-04-01T18:58:25;7.25;;;5.45;;
48534;SDS011;34323;52.022;5.686;2023-04-01T19:03:45;8.35;;;4.95;;
48534;SDS011;34323;52.022;5.686;2023-04-01T19:06:35;8.65;;;5.50;;
48534;SDS011;34323;52.022;5.686;2023-04-01T19:17:26;5.75;;;4.07;;
48534;SDS011;34323;52.022;5.686;2023-04-01T19:20:05;7.28;;;4.93;;
48534;SDS011;34323;52.022;5.686;2023-04-01T19:22:57;6.15;;;4.65;;
48534;SDS011;34323;52.022;5.686;2023-04-01T19:28:16;7.95;;;4.25;;
48534;SDS011;34323;52.022;5.686;2023-04-01T19:33:58;8.85;;;4.60;;
48534;SDS011;34323;52.022;5.686;2023-04-01T19:41:46;6.18;;;4.88;;
48534;SDS011;34323;52.022;5.686;2023-04-01T19:47:24;6.40;;;4.88;;
48534;SDS011;34323;52.022;5.686;2023-04-01T19:52:41;5.50;;;3.70;;
48534;SDS011;34323;52.022;5.686;2023-04-01T19:57:57;6.90;;;5.10;;
48534;SDS011;34323;52.022;5.686;2023-04-01T20:01:04;7.00;;;5.13;;
48534;SDS011;34323;52.022;5.686;2023-04-01T20:03:30;7.47;;;5.65;;
48534;SDS011;34323;52.022;5.686;2023-04-01T20:06:11;9.43;;;6.60;;
48534;SDS011;34323;52.022;5.686;2023-04-01T20:11:46;8.32;;;6.45;;
48534;SDS011;34323;52.022;5.686;2023-04-01T20:14:26;7.35;;;5.70;;
48534;SDS011;34323;52.022;5.686;2023-04-01T20:17:06;9.40;;;5.60;;
48534;SDS011;34323;52.022;5.686;2023-04-01T20:19:36;7.72;;;5.82;;
48534;SDS011;34323;52.022;5.686;2023-04-01T20:22:09;9.02;;;6.75;;
48534;SDS011;34323;52.022;5.686;2023-04-01T20:24:50;9.07;;;6.90;;
48534;SDS011;34323;52.022;5.686;2023-04-01T20:27:19;10.73;;;7.55;;
48534;SDS011;34323;52.022;5.686;2023-04-01T20:29:56;10.47;;;7.27;;
48534;SDS011;34323;52.022;5.686;2023-04-01T20:41:13;13.27;;;8.93;;
48534;SDS011;34323;52.022;5.686;2023-04-01T20:49:40;12.73;;;9.55;;
48534;SDS011;34323;52.022;5.686;2023-04-01T20:54:42;14.43;;;9.80;;
48534;SDS011;34323;52.022;5.686;2023-04-01T21:00:02;14.68;;;10.52;;
48534;SDS011;34323;52.022;5.686;2023-04-01T21:05:45;15.68;;;10.35;;
48534;SDS011;34323;52.022;5.686;2023-04-01T21:08:23;16.15;;;10.75;;
48534;SDS011;34323;52.022;5.686;2023-04-01T21:11:18;14.13;;;9.90;;
48534;SDS011;34323;52.022;5.686;2023-04-01T21:16:43;14.13;;;9.85;;
48534;SDS011;34323;52.022;5.686;2023-04-01T21:22:15;12.88;;;9.35;;
48534;SDS011;34323;52.022;5.686;2023-04-01T21:36:01;15.15;;;9.45;;
48534;SDS011;34323;52.022;5.686;2023-04-01T21:46:51;15.82;;;7.97;;
48534;SDS011;34323;52.022;5.686;2023-04-01T21:49:49;11.15;;;7.95;;
48534;SDS011;34323;52.022;5.686;2023-04-01T21:52:35;11.73;;;8.82;;
48534;SDS011;34323;52.022;5.686;2023-04-01T21:56:16;10.82;;;7.78;;
48534;SDS011;34323;52.022;5.686;2023-04-01T22:04:19;11.77;;;8.57;;
48534;SDS011;34323;52.022;5.686;2023-04-01T22:06:59;12.90;;;9.00;;
48534;SDS011;34323;52.022;5.686;2023-04-01T22:12:34;13.50;;;8.98;;
48534;SDS011;34323;52.022;5.686;2023-04-01T22:15:09;11.60;;;8.35;;
48534;SDS011;34323;52.022;5.686;2023-04-01T22:18:09;12.13;;;8.18;;
48534;SDS011;34323;52.022;5.686;2023-04-01T22:20:51;11.05;;;7.63;;
48534;SDS011;34323;52.022;5.686;2023-04-01T22:23:47;10.30;;;7.55;;
48534;SDS011;34323;52.022;5.686;2023-04-01T22:26:43;10.07;;;7.57;;
48534;SDS011;34323;52.022;5.686;2023-04-01T22:29:18;9.82;;;7.47;;
48534;SDS011;34323;52.022;5.686;2023-04-01T22:32:02;10.75;;;7.45;;
48534;SDS011;34323;52.022;5.686;2023-04-01T22:34:38;11.45;;;8.05;;
48534;SDS011;34323;52.022;5.686;2023-04-01T22:37:21;12.07;;;8.27;;
48534;SDS011;34323;52.022;5.686;2023-04-01T22:42:58;10.25;;;8.07;;
48534;SDS011;34323;52.022;5.686;2023-04-01T22:56:18;13.00;;;8.20;;
48534;SDS011;34323;52.022;5.686;2023-04-01T23:01:37;13.55;;;9.95;;
48534;SDS011;34323;52.022;5.686;2023-04-01T23:04:09;14.30;;;9.77;;
48534;SDS011;34323;52.022;5.686;2023-04-01T23:06:39;13.65;;;9.57;;
48534;SDS011;34323;52.022;5.686;2023-04-01T23:09:15;15.00;;;9.98;;
48534;SDS011;34323;52.022;5.686;2023-04-01T23:11:57;15.50;;;9.85;;
48534;SDS011;34323;52.022;5.686;2023-04-01T23:22:17;16.17;;;11.18;;
48534;SDS011;34323;52.022;5.686;2023-04-01T23:24:50;16.95;;;11.10;;
48534;SDS011;34323;52.022;5.686;2023-04-01T23:27:33;17.33;;;11.85;;
48534;SDS011;34323;52.022;5.686;2023-04-01T23:33:26;15.43;;;10.98;;
48534;SDS011;34323;52.022;5.686;2023-04-01T23:36:13;16.55;;;10.88;;
48534;SDS011;34323;52.022;5.686;2023-04-01T23:38:41;16.00;;;11.63;;
48534;SDS011;34323;52.022;5.686;2023-04-01T23:41:29;15.82;;;11.60;;
48534;SDS011;34323;52.022;5.686;2023-04-01T23:44:00;16.52;;;11.23;;
48534;SDS011;34323;52.022;5.686;2023-04-01T23:46:29;13.20;;;9.52;;
48534;SDS011;34323;52.022;5.686;2023-04-01T23:48:56;16.95;;;10.27;;
48534;SDS011;34323;52.022;5.686;2023-04-01T23:51:24;15.23;;;10.30;;
48534;SDS011;34323;52.022;5.686;2023-04-01T23:54:02;11.35;;;9.10;;
48534;SDS011;34323;52.022;5.686;2023-04-01T23:56:39;16.73;;;10.23;;
